createdAt,value
2017-09-23T00:00:28.981Z,962.95
2017-09-23T00:01:29.002Z,962.96
2017-09-23T00:02:29.022Z,962.95
2017-09-23T00:03:29.044Z,962.94
2017-09-23T00:04:29.066Z,962.93
2017-09-23T00:05:29.086Z,962.97
2017-09-23T00:06:29.111Z,962.96
2017-09-23T00:07:29.129Z,962.97
2017-09-23T00:08:29.153Z,962.98
2017-09-23T00:09:29.222Z,962.95
2017-09-23T00:10:29.193Z,962.95
2017-09-23T00:11:29.215Z,962.91
2017-09-23T00:12:29.237Z,962.99
2017-09-23T00:13:29.258Z,962.97
2017-09-23T00:14:29.278Z,962.97
2017-09-23T00:15:29.300Z,962.93
2017-09-23T00:16:29.321Z,962.9
2017-09-23T00:17:29.342Z,962.91
2017-09-23T00:18:29.363Z,962.87
2017-09-23T00:19:29.382Z,962.86
2017-09-23T00:20:29.404Z,962.87
2017-09-23T00:21:29.424Z,962.85
2017-09-23T00:22:29.446Z,962.87
2017-09-23T00:23:29.467Z,962.88
2017-09-23T00:24:29.488Z,962.84
2017-09-23T00:25:29.509Z,962.89
2017-09-23T00:26:29.532Z,962.84
2017-09-23T00:27:29.556Z,962.86
2017-09-23T00:28:29.626Z,962.86
2017-09-23T00:29:29.599Z,962.91
2017-09-23T00:30:29.618Z,962.87
2017-09-23T00:31:29.637Z,962.89
2017-09-23T00:32:29.657Z,962.89
2017-09-23T00:33:29.677Z,962.89
2017-09-23T00:34:29.698Z,962.89
2017-09-23T00:35:29.718Z,962.92
2017-09-23T00:36:29.758Z,962.9
2017-09-23T00:37:29.763Z,962.9
2017-09-23T00:38:29.781Z,962.92
2017-09-23T00:39:29.806Z,962.98
2017-09-23T00:40:29.823Z,962.97
2017-09-23T00:41:29.845Z,962.99
2017-09-23T00:42:29.867Z,963
2017-09-23T00:43:29.890Z,963.02
2017-09-23T00:44:29.907Z,963.02
2017-09-23T00:45:29.978Z,963
2017-09-23T00:46:29.949Z,963.03
2017-09-23T00:47:29.971Z,963.03
2017-09-23T00:48:29.993Z,962.99
2017-09-23T00:49:30.012Z,963
2017-09-23T00:50:30.035Z,963.02
2017-09-23T00:51:30.057Z,963
2017-09-23T00:52:30.073Z,962.97
2017-09-23T00:53:30.094Z,963
2017-09-23T00:54:30.114Z,962.99
2017-09-23T00:55:30.135Z,962.93
2017-09-23T00:56:30.156Z,962.93
2017-09-23T00:57:30.177Z,962.91
2017-09-23T00:58:30.197Z,962.93
2017-09-23T00:59:30.224Z,962.89
2017-09-23T01:00:30.289Z,962.9
2017-09-23T01:01:30.262Z,962.9
2017-09-23T01:02:30.280Z,962.88
2017-09-23T01:03:30.307Z,962.88
2017-09-23T01:04:30.326Z,962.86
2017-09-23T01:05:30.344Z,962.87
2017-09-23T01:06:30.366Z,962.86
2017-09-23T01:07:30.389Z,962.86
2017-09-23T01:08:30.408Z,962.84
2017-09-23T01:09:30.429Z,962.83
2017-09-23T01:10:30.455Z,962.83
2017-09-23T01:11:30.468Z,962.83
2017-09-23T01:12:30.489Z,962.84
2017-09-23T01:13:30.511Z,962.79
2017-09-23T01:14:30.554Z,962.7
2017-09-23T01:15:30.600Z,962.68
2017-09-23T01:16:30.571Z,962.64
2017-09-23T01:17:30.595Z,962.6
2017-09-23T01:18:30.616Z,962.63
2017-09-23T01:19:30.633Z,962.63
2017-09-23T01:20:30.653Z,962.65
2017-09-23T01:21:30.675Z,962.66
2017-09-23T01:22:30.701Z,962.69
2017-09-23T01:23:30.715Z,962.73
2017-09-23T01:24:30.736Z,962.76
2017-09-23T01:25:30.808Z,962.72
2017-09-23T01:26:30.775Z,962.7
2017-09-23T01:27:30.798Z,962.7
2017-09-23T01:28:30.817Z,962.73
2017-09-23T01:29:30.841Z,962.68
2017-09-23T01:30:30.908Z,962.67
2017-09-23T01:31:30.879Z,962.64
2017-09-23T01:32:30.898Z,962.62
2017-09-23T01:33:30.920Z,962.57
2017-09-23T01:34:30.940Z,962.55
2017-09-23T01:35:30.960Z,962.56
2017-09-23T01:36:30.983Z,962.52
2017-09-23T01:37:31.000Z,962.47
2017-09-23T01:38:31.021Z,962.53
2017-09-23T01:39:31.042Z,962.52
2017-09-23T01:40:31.062Z,962.54
2017-09-23T01:41:31.134Z,962.53
2017-09-23T01:42:31.103Z,962.55
2017-09-23T01:43:31.125Z,962.53
2017-09-23T01:44:31.147Z,962.49
2017-09-23T01:45:31.166Z,962.49
2017-09-23T01:46:31.242Z,962.44
2017-09-23T01:47:31.208Z,962.48
2017-09-23T01:48:31.228Z,962.47
2017-09-23T01:49:31.251Z,962.51
2017-09-23T01:50:31.270Z,962.51
2017-09-23T01:51:31.291Z,962.49
2017-09-23T01:52:31.312Z,962.48
2017-09-23T01:53:31.333Z,962.51
2017-09-23T01:54:31.351Z,962.5
2017-09-23T01:55:31.373Z,962.52
2017-09-23T01:56:31.398Z,962.48
2017-09-23T01:57:31.414Z,962.55
2017-09-23T01:58:31.433Z,962.48
2017-09-23T01:59:31.457Z,962.52
2017-09-23T02:00:31.475Z,962.51
2017-09-23T02:01:31.496Z,962.49
2017-09-23T02:02:31.527Z,962.51
2017-09-23T02:03:31.538Z,962.47
2017-09-23T02:04:31.558Z,962.46
2017-09-23T02:05:31.577Z,962.42
2017-09-23T02:06:31.601Z,962.41
2017-09-23T02:07:31.621Z,962.38
2017-09-23T02:08:31.644Z,962.37
2017-09-23T02:09:31.661Z,962.39
2017-09-23T02:10:31.680Z,962.34
2017-09-23T02:11:31.710Z,962.35
2017-09-23T02:12:31.725Z,962.35
2017-09-23T02:13:31.741Z,962.29
2017-09-23T02:14:31.763Z,962.29
2017-09-23T02:15:31.786Z,962.33
2017-09-23T02:16:31.805Z,962.32
2017-09-23T02:17:31.876Z,962.3
2017-09-23T02:18:31.848Z,962.3
2017-09-23T02:19:31.868Z,962.31
2017-09-23T02:20:31.885Z,962.31
2017-09-23T02:21:31.910Z,962.35
2017-09-23T02:22:31.928Z,962.29
2017-09-23T02:23:31.949Z,962.3
2017-09-23T02:24:31.974Z,962.28
2017-09-23T02:25:31.989Z,962.33
2017-09-23T02:26:32.013Z,962.31
2017-09-23T02:27:32.034Z,962.29
2017-09-23T02:28:32.050Z,962.29
2017-09-23T02:29:32.076Z,962.27
2017-09-23T02:30:32.092Z,962.28
2017-09-23T02:31:32.112Z,962.24
2017-09-23T02:32:32.133Z,962.31
2017-09-23T02:33:32.203Z,962.31
2017-09-23T02:34:32.178Z,962.31
2017-09-23T02:35:32.212Z,962.31
2017-09-23T02:36:32.214Z,962.29
2017-09-23T02:37:32.233Z,962.28
2017-09-23T02:38:32.255Z,962.3
2017-09-23T02:39:32.276Z,962.26
2017-09-23T02:40:32.296Z,962.29
2017-09-23T02:41:32.315Z,962.28
2017-09-23T02:42:32.338Z,962.28
2017-09-23T02:43:32.362Z,962.29
2017-09-23T02:44:32.379Z,962.24
2017-09-23T02:45:32.407Z,962.24
2017-09-23T02:46:32.417Z,962.21
2017-09-23T02:47:32.437Z,962.21
2017-09-23T02:48:32.509Z,962.22
2017-09-23T02:49:32.477Z,962.21
2017-09-23T02:50:32.499Z,962.21
2017-09-23T02:51:32.521Z,962.24
2017-09-23T02:52:32.540Z,962.19
2017-09-23T02:53:32.558Z,962.19
2017-09-23T02:54:32.585Z,962.21
2017-09-23T02:55:32.604Z,962.2
2017-09-23T02:56:32.620Z,962.16
2017-09-23T02:57:32.640Z,962.21
2017-09-23T02:58:32.662Z,962.17
2017-09-23T02:59:32.684Z,962.19
2017-09-23T03:00:32.707Z,962.17
2017-09-23T03:01:32.722Z,962.17
2017-09-23T03:02:32.741Z,962.16
2017-09-23T03:03:32.764Z,962.18
2017-09-23T03:04:32.782Z,962.16
2017-09-23T03:05:32.802Z,962.16
2017-09-23T03:06:32.873Z,962.16
2017-09-23T03:07:32.845Z,962.14
2017-09-23T03:08:32.864Z,962.12
2017-09-23T03:09:32.885Z,962.09
2017-09-23T03:10:32.903Z,962.06
2017-09-23T03:11:32.922Z,962.11
2017-09-23T03:12:32.947Z,962.11
2017-09-23T03:13:32.964Z,962.09
2017-09-23T03:14:32.984Z,962.08
2017-09-23T03:15:33.006Z,962.09
2017-09-23T03:16:33.024Z,962.07
2017-09-23T03:17:33.047Z,962.06
2017-09-23T03:18:33.066Z,962.07
2017-09-23T03:19:33.085Z,962.07
2017-09-23T03:20:33.106Z,962.04
2017-09-23T03:21:33.126Z,962.05
2017-09-23T03:22:33.152Z,962.04
2017-09-23T03:23:33.170Z,962.04
2017-09-23T03:24:33.187Z,962.05
2017-09-23T03:25:33.208Z,962
2017-09-23T03:26:33.229Z,962.01
2017-09-23T03:27:33.253Z,962.01
2017-09-23T03:28:33.269Z,962.02
2017-09-23T03:29:33.288Z,962.02
2017-09-23T03:30:33.313Z,962.03
2017-09-23T03:31:33.330Z,962.05
2017-09-23T03:32:33.353Z,962.04
2017-09-23T03:33:33.374Z,962.03
2017-09-23T03:34:33.390Z,962.01
2017-09-23T03:35:33.461Z,962.03
2017-09-23T03:36:33.430Z,962.04
2017-09-23T03:37:33.457Z,962.04
2017-09-23T03:38:33.479Z,962.06
2017-09-23T03:39:33.491Z,962.09
2017-09-23T03:40:33.711Z,962.07
2017-09-23T03:41:33.532Z,962.07
2017-09-23T03:42:33.564Z,962.02
2017-09-23T03:43:33.593Z,961.99
2017-09-23T03:44:33.605Z,962.01
2017-09-23T03:45:33.613Z,962
2017-09-23T03:46:33.633Z,962
2017-09-23T03:47:33.655Z,962.03
2017-09-23T03:48:33.672Z,961.99
2017-09-23T03:49:33.695Z,961.95
2017-09-23T03:50:33.716Z,961.97
2017-09-23T03:51:33.736Z,961.97
2017-09-23T03:52:33.760Z,961.96
2017-09-23T03:53:33.778Z,961.98
2017-09-23T03:54:33.797Z,961.98
2017-09-23T03:55:33.866Z,961.98
2017-09-23T03:56:33.838Z,961.97
2017-09-23T03:57:33.860Z,961.96
2017-09-23T03:58:33.879Z,961.94
2017-09-23T03:59:33.909Z,961.97
2017-09-23T04:00:33.919Z,961.97
2017-09-23T04:01:33.942Z,962
2017-09-23T04:02:33.963Z,961.98
2017-09-23T04:03:33.982Z,961.96
2017-09-23T04:04:34.002Z,961.97
2017-09-23T04:05:34.022Z,962
2017-09-23T04:06:34.043Z,962
2017-09-23T04:07:34.063Z,961.97
2017-09-23T04:08:34.085Z,962.03
2017-09-23T04:09:34.104Z,961.99
2017-09-23T04:10:34.177Z,962.02
2017-09-23T04:11:34.145Z,961.98
2017-09-23T04:12:34.166Z,961.98
2017-09-23T04:13:34.184Z,962.04
2017-09-23T04:14:34.207Z,961.98
2017-09-23T04:15:34.227Z,962.02
2017-09-23T04:16:34.267Z,961.99
2017-09-23T04:17:34.266Z,961.97
2017-09-23T04:18:34.288Z,962
2017-09-23T04:19:34.311Z,962
2017-09-23T04:20:34.328Z,962.03
2017-09-23T04:21:34.348Z,962.02
2017-09-23T04:22:34.368Z,962.08
2017-09-23T04:23:34.394Z,962.07
2017-09-23T04:24:34.415Z,962.05
2017-09-23T04:25:34.433Z,962.08
2017-09-23T04:26:34.499Z,962.11
2017-09-23T04:27:34.471Z,962.09
2017-09-23T04:28:34.497Z,962.06
2017-09-23T04:29:34.511Z,962.09
2017-09-23T04:30:34.540Z,962.1
2017-09-23T04:31:34.553Z,962.08
2017-09-23T04:32:34.574Z,962.1
2017-09-23T04:33:34.592Z,962.11
2017-09-23T04:34:34.613Z,962.08
2017-09-23T04:35:34.636Z,962.07
2017-09-23T04:36:34.653Z,962.09
2017-09-23T04:37:34.678Z,962.11
2017-09-23T04:38:34.698Z,962.1
2017-09-23T04:39:34.715Z,962.1
2017-09-23T04:40:34.734Z,962.07
2017-09-23T04:41:34.763Z,962.09
2017-09-23T04:42:34.779Z,962.06
2017-09-23T04:43:34.795Z,962.09
2017-09-23T04:44:34.823Z,962.06
2017-09-23T04:45:34.837Z,962.08
2017-09-23T04:46:34.858Z,962.06
2017-09-23T04:47:34.880Z,962.04
2017-09-23T04:48:34.901Z,962.02
2017-09-23T04:49:34.918Z,962.03
2017-09-23T04:50:34.937Z,962.02
2017-09-23T04:51:34.957Z,962.01
2017-09-23T04:52:34.979Z,962.03
2017-09-23T04:53:35.001Z,962.02
2017-09-23T04:54:35.020Z,962.02
2017-09-23T04:55:35.045Z,962.02
2017-09-23T04:56:35.063Z,962.06
2017-09-23T04:57:35.080Z,962.06
2017-09-23T04:58:35.105Z,962.07
2017-09-23T04:59:35.171Z,962.12
2017-09-23T05:00:35.143Z,962.11
2017-09-23T05:01:35.164Z,962.1
2017-09-23T05:02:35.181Z,962.12
2017-09-23T05:03:35.215Z,962.12
2017-09-23T05:04:35.229Z,962.14
2017-09-23T05:05:35.243Z,962.16
2017-09-23T05:06:35.262Z,962.1
2017-09-23T05:07:35.284Z,962.18
2017-09-23T05:08:35.304Z,962.17
2017-09-23T05:09:35.340Z,962.13
2017-09-23T05:10:35.346Z,962.2
2017-09-23T05:11:35.368Z,962.16
2017-09-23T05:12:35.393Z,962.2
2017-09-23T05:13:35.407Z,962.21
2017-09-23T05:14:35.474Z,962.22
2017-09-23T05:15:35.449Z,962.21
2017-09-23T05:16:35.474Z,962.26
2017-09-23T05:17:35.486Z,962.26
2017-09-23T05:18:35.505Z,962.24
2017-09-23T05:19:35.529Z,962.24
2017-09-23T05:20:35.600Z,962.21
2017-09-23T05:21:35.566Z,962.22
2017-09-23T05:22:35.587Z,962.21
2017-09-23T05:23:35.609Z,962.2
2017-09-23T05:24:35.629Z,962.15
2017-09-23T05:25:35.648Z,962.15
2017-09-23T05:26:35.668Z,962.17
2017-09-23T05:27:35.692Z,962.18
2017-09-23T05:28:35.710Z,962.18
2017-09-23T05:29:35.780Z,962.16
2017-09-23T05:30:35.755Z,962.17
2017-09-23T05:31:35.770Z,962.2
2017-09-23T05:32:35.792Z,962.21
2017-09-23T05:33:35.813Z,962.21
2017-09-23T05:34:35.830Z,962.21
2017-09-23T05:35:35.854Z,962.19
2017-09-23T05:36:35.871Z,962.18
2017-09-23T05:37:35.890Z,962.14
2017-09-23T05:38:35.918Z,962.13
2017-09-23T05:39:35.931Z,962.13
2017-09-23T05:40:35.952Z,962.14
2017-09-23T05:41:35.979Z,962.09
2017-09-23T05:42:35.992Z,962.11
2017-09-23T05:43:36.012Z,962.12
2017-09-23T05:44:36.087Z,962.16
2017-09-23T05:45:36.055Z,962.11
2017-09-23T05:46:36.073Z,962.16
2017-09-23T05:47:36.092Z,962.14
2017-09-23T05:48:36.113Z,962.16
2017-09-23T05:49:36.133Z,962.08
2017-09-23T05:50:36.154Z,962.1
2017-09-23T05:51:36.172Z,962.07
2017-09-23T05:52:36.192Z,962.13
2017-09-23T05:53:36.213Z,962.11
2017-09-23T05:54:36.234Z,962.1
2017-09-23T05:55:36.254Z,962.13
2017-09-23T05:56:36.278Z,962.12
2017-09-23T05:57:36.294Z,962.12
2017-09-23T05:58:36.316Z,962.1
2017-09-23T05:59:36.335Z,962.08
2017-09-23T06:00:36.360Z,962.08
2017-09-23T06:01:36.376Z,962.15
2017-09-23T06:02:36.411Z,962.13
2017-09-23T06:03:36.417Z,962.14
2017-09-23T06:04:36.436Z,962.16
2017-09-23T06:05:36.457Z,962.19
2017-09-23T06:06:36.479Z,962.16
2017-09-23T06:07:36.499Z,962.16
2017-09-23T06:08:36.519Z,962.16
2017-09-23T06:09:36.540Z,962.17
2017-09-23T06:10:36.559Z,962.19
2017-09-23T06:11:36.581Z,962.21
2017-09-23T06:12:36.602Z,962.21
2017-09-23T06:13:36.623Z,962.2
2017-09-23T06:14:36.643Z,962.2
2017-09-23T06:15:36.665Z,962.22
2017-09-23T06:16:36.685Z,962.2
2017-09-23T06:17:36.709Z,962.2
2017-09-23T06:18:36.776Z,962.23
2017-09-23T06:19:36.756Z,962.25
2017-09-23T06:20:36.770Z,962.25
2017-09-23T06:21:36.792Z,962.24
2017-09-23T06:22:36.810Z,962.28
2017-09-23T06:23:36.833Z,962.27
2017-09-23T06:24:36.854Z,962.27
2017-09-23T06:25:36.875Z,962.3
2017-09-23T06:26:36.896Z,962.26
2017-09-23T06:27:36.917Z,962.29
2017-09-23T06:28:36.939Z,962.29
2017-09-23T06:29:36.960Z,962.28
2017-09-23T06:30:36.982Z,962.3
2017-09-23T06:31:37.002Z,962.26
2017-09-23T06:32:37.024Z,962.27
2017-09-23T06:33:37.046Z,962.28
2017-09-23T06:34:37.116Z,962.31
2017-09-23T06:35:37.088Z,962.35
2017-09-23T06:36:37.109Z,962.33
2017-09-23T06:37:37.134Z,962.3
2017-09-23T06:38:37.156Z,962.33
2017-09-23T06:39:37.172Z,962.34
2017-09-23T06:40:37.200Z,962.34
2017-09-23T06:41:37.216Z,962.36
2017-09-23T06:42:37.238Z,962.36
2017-09-23T06:43:37.258Z,962.4
2017-09-23T06:44:37.280Z,962.41
2017-09-23T06:45:37.304Z,962.41
2017-09-23T06:46:37.324Z,962.39
2017-09-23T06:47:37.344Z,962.41
2017-09-23T06:48:37.366Z,962.45
2017-09-23T06:49:37.438Z,962.47
2017-09-23T06:50:37.408Z,962.45
2017-09-23T06:51:37.433Z,962.45
2017-09-23T06:52:37.456Z,962.43
2017-09-23T06:53:37.479Z,962.45
2017-09-23T06:54:37.502Z,962.44
2017-09-23T06:55:37.527Z,962.44
2017-09-23T06:56:37.547Z,962.46
2017-09-23T06:57:37.564Z,962.47
2017-09-23T06:58:37.585Z,962.49
2017-09-23T06:59:37.607Z,962.51
2017-09-23T07:00:37.629Z,962.52
2017-09-23T07:01:37.650Z,962.57
2017-09-23T07:02:37.672Z,962.55
2017-09-23T07:03:37.701Z,962.59
2017-09-23T07:04:37.721Z,962.57
2017-09-23T07:05:37.819Z,962.58
2017-09-23T07:06:37.763Z,962.61
2017-09-23T07:07:37.786Z,962.6
2017-09-23T07:08:37.808Z,962.63
2017-09-23T07:09:37.833Z,962.62
2017-09-23T07:10:37.853Z,962.63
2017-09-23T07:11:37.894Z,962.64
2017-09-23T07:12:37.906Z,962.61
2017-09-23T07:13:37.920Z,962.64
2017-09-23T07:14:37.942Z,962.6
2017-09-23T07:15:37.965Z,962.65
2017-09-23T07:16:37.990Z,962.61
2017-09-23T07:17:38.013Z,962.63
2017-09-23T07:18:38.035Z,962.66
2017-09-23T07:19:38.054Z,962.65
2017-09-23T07:20:38.131Z,962.68
2017-09-23T07:21:38.100Z,962.7
2017-09-23T07:22:38.122Z,962.7
2017-09-23T07:23:38.144Z,962.71
2017-09-23T07:24:38.368Z,962.67
2017-09-23T07:25:38.192Z,962.68
2017-09-23T07:26:38.221Z,962.64
2017-09-23T07:27:38.239Z,962.7
2017-09-23T07:28:38.259Z,962.71
2017-09-23T07:29:38.283Z,962.69
2017-09-23T07:30:38.306Z,962.65
2017-09-23T07:31:38.333Z,962.66
2017-09-23T07:32:38.351Z,962.68
2017-09-23T07:33:38.376Z,962.65
2017-09-23T07:34:38.398Z,962.65
2017-09-23T07:35:38.471Z,962.69
2017-09-23T07:36:38.445Z,962.7
2017-09-23T07:37:38.472Z,962.74
2017-09-23T07:38:38.490Z,962.74
2017-09-23T07:39:38.515Z,962.79
2017-09-23T07:40:38.538Z,962.79
2017-09-23T07:41:38.560Z,962.77
2017-09-23T07:42:38.583Z,962.84
2017-09-23T07:43:38.607Z,962.82
2017-09-23T07:44:38.631Z,962.86
2017-09-23T07:45:38.654Z,962.82
2017-09-23T07:46:38.679Z,962.87
2017-09-23T07:47:38.701Z,962.9
2017-09-23T07:48:38.724Z,962.88
2017-09-23T07:49:38.752Z,962.87
2017-09-23T07:50:38.775Z,962.89
2017-09-23T07:51:38.795Z,962.89
2017-09-23T07:52:38.818Z,962.89
2017-09-23T07:53:38.842Z,962.89
2017-09-23T07:54:38.864Z,962.9
2017-09-23T07:55:38.891Z,962.9
2017-09-23T07:56:38.912Z,962.9
2017-09-23T07:57:38.942Z,962.89
2017-09-23T07:58:38.961Z,962.86
2017-09-23T07:59:38.988Z,962.88
2017-09-23T08:00:39.010Z,962.89
2017-09-23T08:01:39.028Z,962.89
2017-09-23T08:02:39.054Z,962.89
2017-09-23T08:03:39.076Z,962.92
2017-09-23T08:04:39.101Z,962.95
2017-09-23T08:05:39.144Z,962.94
2017-09-23T08:06:39.147Z,962.97
2017-09-23T08:07:39.170Z,963.02
2017-09-23T08:08:39.194Z,962.98
2017-09-23T08:09:39.219Z,963
2017-09-23T08:10:39.241Z,962.99
2017-09-23T08:11:39.263Z,963.01
2017-09-23T08:12:39.289Z,962.97
2017-09-23T08:13:39.315Z,962.96
2017-09-23T08:14:39.334Z,962.98
2017-09-23T08:15:39.358Z,962.97
2017-09-23T08:16:39.384Z,962.94
2017-09-23T08:17:39.407Z,962.97
2017-09-23T08:18:39.428Z,962.96
2017-09-23T08:19:39.452Z,962.95
2017-09-23T08:20:39.477Z,962.95
2017-09-23T08:21:39.503Z,962.95
2017-09-23T08:22:39.523Z,962.97
2017-09-23T08:23:39.547Z,962.97
2017-09-23T08:24:39.571Z,962.92
2017-09-23T08:25:39.603Z,962.97
2017-09-23T08:26:39.618Z,962.93
2017-09-23T08:27:39.641Z,962.92
2017-09-23T08:28:39.667Z,962.88
2017-09-23T08:29:39.688Z,962.9
2017-09-23T08:30:39.713Z,962.9
2017-09-23T08:31:39.736Z,962.82
2017-09-23T08:32:39.762Z,962.9
2017-09-23T08:33:39.783Z,962.89
2017-09-23T08:34:39.806Z,962.9
2017-09-23T08:35:39.836Z,962.92
2017-09-23T08:36:39.865Z,962.89
2017-09-23T08:37:39.881Z,962.94
2017-09-23T08:38:39.911Z,962.96
2017-09-23T08:39:39.931Z,962.94
2017-09-23T08:40:39.951Z,962.98
2017-09-23T08:41:39.974Z,963
2017-09-23T08:42:39.999Z,962.98
2017-09-23T08:43:40.024Z,963.02
2017-09-23T08:44:40.050Z,962.96
2017-09-23T08:45:40.074Z,963
2017-09-23T08:46:40.097Z,962.94
2017-09-23T08:47:40.122Z,962.98
2017-09-23T08:48:40.148Z,962.96
2017-09-23T08:49:40.174Z,962.95
2017-09-23T08:50:40.193Z,962.95
2017-09-23T08:51:40.218Z,962.99
2017-09-23T08:52:40.243Z,962.99
2017-09-23T08:53:40.267Z,962.97
2017-09-23T08:54:40.293Z,962.98
2017-09-23T08:55:40.316Z,962.97
2017-09-23T08:56:40.342Z,963.02
2017-09-23T08:57:40.368Z,962.94
2017-09-23T08:58:40.391Z,962.94
2017-09-23T08:59:40.419Z,962.95
2017-09-23T09:00:40.442Z,962.93
2017-09-23T09:01:40.465Z,962.94
2017-09-23T09:02:40.491Z,962.93
2017-09-23T09:03:40.516Z,962.96
2017-09-23T09:04:40.540Z,962.91
2017-09-23T09:05:40.566Z,962.94
2017-09-23T09:06:40.590Z,962.9
2017-09-23T09:07:40.615Z,962.86
2017-09-23T09:08:40.640Z,962.87
2017-09-23T09:09:40.665Z,962.91
2017-09-23T09:10:40.691Z,962.91
2017-09-23T09:11:40.720Z,962.91
2017-09-23T09:12:40.742Z,962.9
2017-09-23T09:13:40.766Z,962.93
2017-09-23T09:14:40.791Z,962.93
2017-09-23T09:15:40.819Z,962.93
2017-09-23T09:16:40.843Z,962.94
2017-09-23T09:17:40.867Z,962.9
2017-09-23T09:18:40.892Z,962.87
2017-09-23T09:19:40.919Z,962.86
2017-09-23T09:20:40.944Z,962.83
2017-09-23T09:21:40.970Z,962.82
2017-09-23T09:22:40.993Z,962.79
2017-09-23T09:23:41.031Z,962.75
2017-09-23T09:24:41.045Z,962.78
2017-09-23T09:25:41.077Z,962.75
2017-09-23T09:26:41.095Z,962.76
2017-09-23T09:27:41.123Z,962.78
2017-09-23T09:28:41.149Z,962.79
2017-09-23T09:29:41.185Z,962.76
2017-09-23T09:30:41.200Z,962.78
2017-09-23T09:31:41.244Z,962.73
2017-09-23T09:32:41.247Z,962.77
2017-09-23T09:33:41.278Z,962.73
2017-09-23T09:34:41.301Z,962.74
2017-09-23T09:35:41.331Z,962.77
2017-09-23T09:36:41.350Z,962.73
2017-09-23T09:37:41.377Z,962.71
2017-09-23T09:38:41.403Z,962.7
2017-09-23T09:39:41.431Z,962.69
2017-09-23T09:40:41.458Z,962.7
2017-09-23T09:41:41.483Z,962.71
2017-09-23T09:42:41.509Z,962.66
2017-09-23T09:43:41.539Z,962.66
2017-09-23T09:44:41.564Z,962.64
2017-09-23T09:45:41.589Z,962.64
2017-09-23T09:46:41.620Z,962.68
2017-09-23T09:47:41.705Z,962.65
2017-09-23T09:48:41.684Z,962.64
2017-09-23T09:49:41.699Z,962.64
2017-09-23T09:50:41.728Z,962.65
2017-09-23T09:51:41.757Z,962.67
2017-09-23T09:52:41.789Z,962.64
2017-09-23T09:53:41.815Z,962.63
2017-09-23T09:54:41.842Z,962.63
2017-09-23T09:55:41.873Z,962.64
2017-09-23T09:56:41.902Z,962.62
2017-09-23T09:57:41.928Z,962.62
2017-09-23T09:58:41.962Z,962.67
2017-09-23T09:59:41.990Z,962.65
2017-09-23T10:00:42.016Z,962.65
2017-09-23T10:01:42.043Z,962.68
2017-09-23T10:02:42.073Z,962.7
2017-09-23T10:03:42.118Z,962.7
2017-09-23T10:04:42.138Z,962.73
2017-09-23T10:05:42.163Z,962.73
2017-09-23T10:06:42.201Z,962.75
2017-09-23T10:07:42.223Z,962.71
2017-09-23T10:08:42.261Z,962.68
2017-09-23T10:09:42.285Z,962.68
2017-09-23T10:10:42.314Z,962.68
2017-09-23T10:11:42.345Z,962.66
2017-09-23T10:12:42.373Z,962.64
2017-09-23T10:13:42.404Z,962.69
2017-09-23T10:14:42.439Z,962.69
2017-09-23T10:15:42.466Z,962.69
2017-09-23T10:16:42.495Z,962.68
2017-09-23T10:17:42.526Z,962.64
2017-09-23T10:18:42.556Z,962.63
2017-09-23T10:19:42.586Z,962.64
2017-09-23T10:20:42.618Z,962.61
2017-09-23T10:21:42.651Z,962.65
2017-09-23T10:22:42.678Z,962.66
2017-09-23T10:23:42.711Z,962.65
2017-09-23T10:24:42.741Z,962.7
2017-09-23T10:25:42.776Z,962.65
2017-09-23T10:26:42.803Z,962.65
2017-09-23T10:27:42.834Z,962.64
2017-09-23T10:28:42.867Z,962.66
2017-09-23T10:29:42.900Z,962.69
2017-09-23T10:30:42.931Z,962.65
2017-09-23T10:31:42.963Z,962.68
2017-09-23T10:32:43.000Z,962.68
2017-09-23T10:33:43.026Z,962.72
2017-09-23T10:34:43.058Z,962.74
2017-09-23T10:35:43.092Z,962.73
2017-09-23T10:36:43.140Z,962.77
2017-09-23T10:37:43.158Z,962.73
2017-09-23T10:38:43.188Z,962.72
2017-09-23T10:39:43.222Z,962.69
2017-09-23T10:40:43.260Z,962.64
2017-09-23T10:41:43.337Z,962.63
2017-09-23T10:42:43.320Z,962.63
2017-09-23T10:43:43.356Z,962.62
2017-09-23T10:44:43.387Z,962.63
2017-09-23T10:45:43.419Z,962.61
2017-09-23T10:46:43.454Z,962.58
2017-09-23T10:47:43.488Z,962.55
2017-09-23T10:48:43.518Z,962.58
2017-09-23T10:49:43.553Z,962.53
2017-09-23T10:50:43.586Z,962.51
2017-09-23T10:51:43.619Z,962.54
2017-09-23T10:52:43.653Z,962.54
2017-09-23T10:53:43.686Z,962.49
2017-09-23T10:54:43.720Z,962.49
2017-09-23T10:55:43.755Z,962.52
2017-09-23T10:56:43.790Z,962.51
2017-09-23T10:57:43.822Z,962.48
2017-09-23T10:58:43.855Z,962.52
2017-09-23T10:59:43.888Z,962.49
2017-09-23T11:00:43.921Z,962.45
2017-09-23T11:01:43.961Z,962.49
2017-09-23T11:02:43.989Z,962.46
2017-09-23T11:03:44.024Z,962.46
2017-09-23T11:04:44.060Z,962.43
2017-09-23T11:05:44.096Z,962.43
2017-09-23T11:06:44.123Z,962.39
2017-09-23T11:07:44.158Z,962.46
2017-09-23T11:08:44.192Z,962.44
2017-09-23T11:09:44.225Z,962.44
2017-09-23T11:10:44.258Z,962.42
2017-09-23T11:11:44.294Z,962.39
2017-09-23T11:12:44.325Z,962.42
2017-09-23T11:13:44.359Z,962.39
2017-09-23T11:14:44.420Z,962.35
2017-09-23T11:15:44.428Z,962.37
2017-09-23T11:16:44.511Z,962.37
2017-09-23T11:17:44.495Z,962.34
2017-09-23T11:18:44.533Z,962.37
2017-09-23T11:19:44.596Z,962.37
2017-09-23T11:20:44.630Z,962.35
2017-09-23T11:21:44.631Z,962.39
2017-09-23T11:22:44.665Z,962.3
2017-09-23T11:23:44.701Z,962.2
2017-09-23T11:24:44.733Z,962.25
2017-09-23T11:25:44.768Z,962.31
2017-09-23T11:26:44.802Z,962.32
2017-09-23T11:27:44.843Z,962.3
2017-09-23T11:28:44.869Z,962.26
2017-09-23T11:29:44.905Z,962.29
2017-09-23T11:30:44.938Z,962.16
2017-09-23T11:31:45.023Z,962.05
2017-09-23T11:32:45.007Z,962.01
2017-09-23T11:33:45.040Z,962.03
2017-09-23T11:34:45.074Z,962.01
2017-09-23T11:35:45.127Z,961.96
2017-09-23T11:36:45.140Z,962.02
2017-09-23T11:37:45.173Z,962
2017-09-23T11:38:45.209Z,962.19
2017-09-23T11:39:45.239Z,962.23
2017-09-23T11:40:45.278Z,962.21
2017-09-23T11:41:45.307Z,961.9
2017-09-23T11:42:45.337Z,961.94
2017-09-23T11:43:45.393Z,961.99
2017-09-23T11:44:45.401Z,962.2
2017-09-23T11:45:45.441Z,962.23
2017-09-23T11:46:45.616Z,962.23
2017-09-23T11:47:45.514Z,962.19
2017-09-23T11:48:45.788Z,962.23
2017-09-23T11:49:45.565Z,962.23
2017-09-23T11:50:45.597Z,962.25
2017-09-23T11:51:45.630Z,962.25
2017-09-23T11:52:45.663Z,962.22
2017-09-23T11:53:45.698Z,962.21
2017-09-23T11:54:46.048Z,962.18
2017-09-23T11:55:45.842Z,962.23
2017-09-23T11:56:45.803Z,962.23
2017-09-23T11:57:45.832Z,962.16
2017-09-23T11:58:45.868Z,962.16
2017-09-23T11:59:45.906Z,962.14
2017-09-23T12:00:45.946Z,962.18
2017-09-23T12:01:45.968Z,962.17
2017-09-23T12:02:46.004Z,962.1
2017-09-23T12:03:46.040Z,962.08
2017-09-23T12:04:46.393Z,962.14
2017-09-23T12:05:46.162Z,962.12
2017-09-23T12:06:46.145Z,962.14
2017-09-23T12:07:46.181Z,962.1
2017-09-23T12:08:46.218Z,962.09
2017-09-23T12:09:46.309Z,962.09
2017-09-23T12:10:46.292Z,962.08
2017-09-23T12:11:46.327Z,962.13
2017-09-23T12:12:46.365Z,962.13
2017-09-23T12:13:46.400Z,962.18
2017-09-23T12:14:46.436Z,962.14
2017-09-23T12:15:46.474Z,962.15
2017-09-23T12:16:46.509Z,962.16
2017-09-23T12:17:46.547Z,962.12
2017-09-23T12:18:46.585Z,962.11
2017-09-23T12:19:46.619Z,962.08
2017-09-23T12:20:46.709Z,962.07
2017-09-23T12:21:46.695Z,962.03
2017-09-23T12:22:46.736Z,962.01
2017-09-23T12:23:46.771Z,962.06
2017-09-23T12:24:46.808Z,962.02
2017-09-23T12:25:46.841Z,962.02
2017-09-23T12:26:46.891Z,962.04
2017-09-23T12:27:46.918Z,962.05
2017-09-23T12:28:46.954Z,962.05
2017-09-23T12:29:46.996Z,962.04
2017-09-23T12:30:47.097Z,962.06
2017-09-23T12:31:47.217Z,962.06
2017-09-23T12:32:47.101Z,962.05